sensor_id;sensor_type;location;lat;lon;timestamp;P1;durP1;ratioP1;P2;durP2;ratioP2
79616;SDS011;69097;52.132;5.422;2023-08-06T00:00:37;8.82;;;4.13;;
79616;SDS011;69097;52.132;5.422;2023-08-06T00:03:04;8.43;;;4.28;;
79616;SDS011;69097;52.132;5.422;2023-08-06T00:05:32;10.30;;;3.97;;
79616;SDS011;69097;52.132;5.422;2023-08-06T00:07:58;9.57;;;4.22;;
79616;SDS011;69097;52.132;5.422;2023-08-06T00:10:25;8.60;;;4.97;;
79616;SDS011;69097;52.132;5.422;2023-08-06T00:12:51;8.90;;;4.00;;
79616;SDS011;69097;52.132;5.422;2023-08-06T00:15:18;9.38;;;4.22;;
79616;SDS011;69097;52.132;5.422;2023-08-06T00:17:45;8.40;;;4.38;;
79616;SDS011;69097;52.132;5.422;2023-08-06T00:20:11;8.02;;;4.22;;
79616;SDS011;69097;52.132;5.422;2023-08-06T00:22:38;10.18;;;4.45;;
79616;SDS011;69097;52.132;5.422;2023-08-06T00:25:05;8.65;;;4.85;;
79616;SDS011;69097;52.132;5.422;2023-08-06T00:27:32;10.25;;;4.45;;
79616;SDS011;69097;52.132;5.422;2023-08-06T00:29:59;8.98;;;4.13;;
79616;SDS011;69097;52.132;5.422;2023-08-06T00:32:25;8.18;;;4.55;;
79616;SDS011;69097;52.132;5.422;2023-08-06T00:34:52;9.75;;;4.22;;
79616;SDS011;69097;52.132;5.422;2023-08-06T00:37:19;9.55;;;4.15;;
79616;SDS011;69097;52.132;5.422;2023-08-06T00:39:45;7.63;;;4.28;;
79616;SDS011;69097;52.132;5.422;2023-08-06T00:42:12;10.70;;;4.18;;
79616;SDS011;69097;52.132;5.422;2023-08-06T00:44:38;10.70;;;4.68;;
79616;SDS011;69097;52.132;5.422;2023-08-06T00:47:06;8.38;;;4.35;;
79616;SDS011;69097;52.132;5.422;2023-08-06T00:49:37;12.32;;;4.45;;
79616;SDS011;69097;52.132;5.422;2023-08-06T00:52:05;10.27;;;4.53;;
79616;SDS011;69097;52.132;5.422;2023-08-06T00:54:33;8.57;;;4.90;;
79616;SDS011;69097;52.132;5.422;2023-08-06T00:57:01;8.18;;;4.07;;
79616;SDS011;69097;52.132;5.422;2023-08-06T00:59:28;10.95;;;4.72;;
79616;SDS011;69097;52.132;5.422;2023-08-06T01:01:57;9.07;;;4.38;;
79616;SDS011;69097;52.132;5.422;2023-08-06T01:04:24;10.10;;;4.57;;
79616;SDS011;69097;52.132;5.422;2023-08-06T01:07:02;13.60;;;4.53;;
79616;SDS011;69097;52.132;5.422;2023-08-06T01:17:35;9.15;;;4.30;;
79616;SDS011;69097;52.132;5.422;2023-08-06T01:20:02;10.05;;;4.82;;
79616;SDS011;69097;52.132;5.422;2023-08-06T01:22:30;9.90;;;5.15;;
79616;SDS011;69097;52.132;5.422;2023-08-06T01:24:56;7.45;;;4.15;;
79616;SDS011;69097;52.132;5.422;2023-08-06T01:27:28;10.48;;;4.78;;
79616;SDS011;69097;52.132;5.422;2023-08-06T01:32:46;9.60;;;4.85;;
79616;SDS011;69097;52.132;5.422;2023-08-06T01:35:17;9.32;;;5.03;;
79616;SDS011;69097;52.132;5.422;2023-08-06T01:37:45;10.23;;;5.03;;
79616;SDS011;69097;52.132;5.422;2023-08-06T01:40:13;9.68;;;5.13;;
79616;SDS011;69097;52.132;5.422;2023-08-06T01:42:40;9.70;;;5.32;;
79616;SDS011;69097;52.132;5.422;2023-08-06T01:45:07;10.52;;;5.13;;
79616;SDS011;69097;52.132;5.422;2023-08-06T01:47:34;11.02;;;5.07;;
79616;SDS011;69097;52.132;5.422;2023-08-06T01:52:28;9.75;;;5.20;;
79616;SDS011;69097;52.132;5.422;2023-08-06T01:54:55;10.48;;;4.90;;
79616;SDS011;69097;52.132;5.422;2023-08-06T01:57:21;11.93;;;5.25;;
79616;SDS011;69097;52.132;5.422;2023-08-06T01:59:48;11.98;;;5.47;;
79616;SDS011;69097;52.132;5.422;2023-08-06T02:02:14;12.15;;;5.18;;
79616;SDS011;69097;52.132;5.422;2023-08-06T02:04:41;11.55;;;5.78;;
79616;SDS011;69097;52.132;5.422;2023-08-06T02:07:07;10.65;;;6.10;;
79616;SDS011;69097;52.132;5.422;2023-08-06T02:09:34;11.70;;;5.55;;
79616;SDS011;69097;52.132;5.422;2023-08-06T02:12:01;12.98;;;5.82;;
79616;SDS011;69097;52.132;5.422;2023-08-06T02:14:28;12.70;;;6.40;;
79616;SDS011;69097;52.132;5.422;2023-08-06T02:16:55;15.05;;;6.68;;
79616;SDS011;69097;52.132;5.422;2023-08-06T02:19:21;14.40;;;6.15;;
79616;SDS011;69097;52.132;5.422;2023-08-06T02:21:48;12.88;;;6.22;;
79616;SDS011;69097;52.132;5.422;2023-08-06T02:24:14;12.15;;;6.63;;
79616;SDS011;69097;52.132;5.422;2023-08-06T02:26:41;13.27;;;6.63;;
79616;SDS011;69097;52.132;5.422;2023-08-06T02:29:08;14.07;;;6.95;;
79616;SDS011;69097;52.132;5.422;2023-08-06T02:31:35;12.07;;;6.05;;
79616;SDS011;69097;52.132;5.422;2023-08-06T02:34:02;11.45;;;6.03;;
79616;SDS011;69097;52.132;5.422;2023-08-06T02:36:28;13.95;;;6.95;;
79616;SDS011;69097;52.132;5.422;2023-08-06T02:41:22;10.45;;;5.70;;
79616;SDS011;69097;52.132;5.422;2023-08-06T02:43:48;12.55;;;6.13;;
79616;SDS011;69097;52.132;5.422;2023-08-06T02:46:15;15.90;;;6.28;;
79616;SDS011;69097;52.132;5.422;2023-08-06T02:48:41;13.65;;;6.82;;
79616;SDS011;69097;52.132;5.422;2023-08-06T02:51:08;13.20;;;6.03;;
79616;SDS011;69097;52.132;5.422;2023-08-06T02:53:34;12.77;;;6.05;;
79616;SDS011;69097;52.132;5.422;2023-08-06T02:56:01;14.27;;;7.13;;
79616;SDS011;69097;52.132;5.422;2023-08-06T02:58:27;11.10;;;5.38;;
79616;SDS011;69097;52.132;5.422;2023-08-06T03:01:00;10.88;;;5.07;;
79616;SDS011;69097;52.132;5.422;2023-08-06T03:03:30;10.52;;;4.97;;
79616;SDS011;69097;52.132;5.422;2023-08-06T03:05:57;10.40;;;5.00;;
79616;SDS011;69097;52.132;5.422;2023-08-06T03:08:24;9.57;;;5.13;;
79616;SDS011;69097;52.132;5.422;2023-08-06T03:10:50;11.27;;;5.05;;
79616;SDS011;69097;52.132;5.422;2023-08-06T03:13:17;11.85;;;5.15;;
79616;SDS011;69097;52.132;5.422;2023-08-06T03:15:54;11.57;;;5.75;;
79616;SDS011;69097;52.132;5.422;2023-08-06T03:18:20;9.50;;;5.18;;
79616;SDS011;69097;52.132;5.422;2023-08-06T03:20:47;9.93;;;5.13;;
79616;SDS011;69097;52.132;5.422;2023-08-06T03:23:14;9.38;;;5.35;;
79616;SDS011;69097;52.132;5.422;2023-08-06T03:25:41;9.82;;;4.70;;
79616;SDS011;69097;52.132;5.422;2023-08-06T03:28:08;11.30;;;4.72;;
79616;SDS011;69097;52.132;5.422;2023-08-06T03:30:34;9.45;;;5.47;;
79616;SDS011;69097;52.132;5.422;2023-08-06T03:33:01;9.18;;;4.75;;
79616;SDS011;69097;52.132;5.422;2023-08-06T03:35:27;10.23;;;5.63;;
79616;SDS011;69097;52.132;5.422;2023-08-06T03:37:54;9.50;;;5.38;;
79616;SDS011;69097;52.132;5.422;2023-08-06T03:40:21;10.75;;;5.05;;
79616;SDS011;69097;52.132;5.422;2023-08-06T03:42:47;9.60;;;5.25;;
79616;SDS011;69097;52.132;5.422;2023-08-06T03:45:13;10.52;;;5.28;;
79616;SDS011;69097;52.132;5.422;2023-08-06T03:47:40;10.27;;;5.70;;
79616;SDS011;69097;52.132;5.422;2023-08-06T03:50:07;14.50;;;5.70;;
79616;SDS011;69097;52.132;5.422;2023-08-06T03:52:33;11.43;;;6.35;;
79616;SDS011;69097;52.132;5.422;2023-08-06T03:55:00;11.05;;;5.55;;
79616;SDS011;69097;52.132;5.422;2023-08-06T03:57:26;11.13;;;5.72;;
79616;SDS011;69097;52.132;5.422;2023-08-06T03:59:53;9.75;;;6.25;;
79616;SDS011;69097;52.132;5.422;2023-08-06T04:02:21;12.25;;;6.60;;
79616;SDS011;69097;52.132;5.422;2023-08-06T04:04:47;12.77;;;5.53;;
79616;SDS011;69097;52.132;5.422;2023-08-06T04:07:14;13.40;;;6.22;;
79616;SDS011;69097;52.132;5.422;2023-08-06T04:09:53;10.77;;;6.43;;
79616;SDS011;69097;52.132;5.422;2023-08-06T04:12:24;11.02;;;6.32;;
79616;SDS011;69097;52.132;5.422;2023-08-06T04:14:51;11.77;;;6.22;;
79616;SDS011;69097;52.132;5.422;2023-08-06T04:17:22;11.63;;;6.43;;
79616;SDS011;69097;52.132;5.422;2023-08-06T04:19:50;12.18;;;6.40;;
79616;SDS011;69097;52.132;5.422;2023-08-06T04:22:18;12.30;;;7.20;;
79616;SDS011;69097;52.132;5.422;2023-08-06T04:27:11;13.63;;;6.60;;
79616;SDS011;69097;52.132;5.422;2023-08-06T04:29:39;13.55;;;7.40;;
79616;SDS011;69097;52.132;5.422;2023-08-06T04:32:07;14.75;;;7.38;;
79616;SDS011;69097;52.132;5.422;2023-08-06T04:34:35;15.48;;;8.25;;
79616;SDS011;69097;52.132;5.422;2023-08-06T04:37:03;13.52;;;8.02;;
79616;SDS011;69097;52.132;5.422;2023-08-06T04:39:30;16.08;;;8.70;;
79616;SDS011;69097;52.132;5.422;2023-08-06T04:41:56;14.55;;;7.75;;
79616;SDS011;69097;52.132;5.422;2023-08-06T04:44:26;14.90;;;8.20;;
79616;SDS011;69097;52.132;5.422;2023-08-06T04:46:53;14.13;;;7.82;;
79616;SDS011;69097;52.132;5.422;2023-08-06T04:49:22;16.73;;;8.98;;
79616;SDS011;69097;52.132;5.422;2023-08-06T04:51:49;13.38;;;7.93;;
79616;SDS011;69097;52.132;5.422;2023-08-06T04:54:16;15.43;;;8.55;;
79616;SDS011;69097;52.132;5.422;2023-08-06T04:56:42;15.77;;;8.57;;
79616;SDS011;69097;52.132;5.422;2023-08-06T04:59:09;14.52;;;8.25;;
79616;SDS011;69097;52.132;5.422;2023-08-06T05:01:35;16.38;;;8.15;;
79616;SDS011;69097;52.132;5.422;2023-08-06T05:04:02;15.38;;;8.50;;
79616;SDS011;69097;52.132;5.422;2023-08-06T05:06:28;15.98;;;8.73;;
79616;SDS011;69097;52.132;5.422;2023-08-06T05:08:55;14.75;;;8.90;;
79616;SDS011;69097;52.132;5.422;2023-08-06T05:11:22;15.77;;;8.65;;
79616;SDS011;69097;52.132;5.422;2023-08-06T05:13:48;13.88;;;8.63;;
79616;SDS011;69097;52.132;5.422;2023-08-06T05:16:15;16.90;;;9.52;;
79616;SDS011;69097;52.132;5.422;2023-08-06T05:18:41;15.88;;;9.13;;
79616;SDS011;69097;52.132;5.422;2023-08-06T05:21:08;17.73;;;9.38;;
79616;SDS011;69097;52.132;5.422;2023-08-06T05:23:34;16.85;;;8.50;;
79616;SDS011;69097;52.132;5.422;2023-08-06T05:26:01;17.00;;;9.85;;
79616;SDS011;69097;52.132;5.422;2023-08-06T05:28:28;16.73;;;9.55;;
79616;SDS011;69097;52.132;5.422;2023-08-06T05:30:54;16.70;;;8.82;;
79616;SDS011;69097;52.132;5.422;2023-08-06T05:33:20;16.63;;;9.95;;
79616;SDS011;69097;52.132;5.422;2023-08-06T05:35:48;17.80;;;10.07;;
79616;SDS011;69097;52.132;5.422;2023-08-06T05:38:16;17.70;;;9.93;;
79616;SDS011;69097;52.132;5.422;2023-08-06T05:40:43;16.60;;;9.82;;
79616;SDS011;69097;52.132;5.422;2023-08-06T05:43:09;18.50;;;9.73;;
79616;SDS011;69097;52.132;5.422;2023-08-06T05:45:36;20.00;;;10.25;;
79616;SDS011;69097;52.132;5.422;2023-08-06T05:48:02;17.80;;;9.15;;
79616;SDS011;69097;52.132;5.422;2023-08-06T05:50:29;17.23;;;9.40;;
79616;SDS011;69097;52.132;5.422;2023-08-06T05:52:56;18.55;;;9.73;;
79616;SDS011;69097;52.132;5.422;2023-08-06T05:55:26;18.40;;;9.68;;
79616;SDS011;69097;52.132;5.422;2023-08-06T05:57:52;16.85;;;9.88;;
79616;SDS011;69097;52.132;5.422;2023-08-06T06:00:21;16.15;;;9.20;;
79616;SDS011;69097;52.132;5.422;2023-08-06T06:02:48;16.38;;;9.25;;
79616;SDS011;69097;52.132;5.422;2023-08-06T06:05:15;16.83;;;9.50;;
79616;SDS011;69097;52.132;5.422;2023-08-06T06:07:42;18.92;;;10.13;;
79616;SDS011;69097;52.132;5.422;2023-08-06T06:10:09;20.00;;;9.48;;
79616;SDS011;69097;52.132;5.422;2023-08-06T06:12:35;18.30;;;9.57;;
79616;SDS011;69097;52.132;5.422;2023-08-06T06:15:04;17.30;;;9.65;;
79616;SDS011;69097;52.132;5.422;2023-08-06T06:17:31;17.98;;;9.65;;
79616;SDS011;69097;52.132;5.422;2023-08-06T06:19:58;18.50;;;10.52;;
79616;SDS011;69097;52.132;5.422;2023-08-06T06:22:24;21.13;;;10.50;;
79616;SDS011;69097;52.132;5.422;2023-08-06T06:24:51;17.92;;;10.13;;
79616;SDS011;69097;52.132;5.422;2023-08-06T06:27:17;17.73;;;9.82;;
79616;SDS011;69097;52.132;5.422;2023-08-06T06:29:43;17.00;;;9.15;;
79616;SDS011;69097;52.132;5.422;2023-08-06T06:32:10;18.23;;;9.43;;
79616;SDS011;69097;52.132;5.422;2023-08-06T06:34:36;18.50;;;10.68;;
79616;SDS011;69097;52.132;5.422;2023-08-06T06:37:03;17.48;;;9.80;;
79616;SDS011;69097;52.132;5.422;2023-08-06T06:39:30;19.55;;;10.10;;
79616;SDS011;69097;52.132;5.422;2023-08-06T06:41:56;18.92;;;10.45;;
79616;SDS011;69097;52.132;5.422;2023-08-06T06:44:23;20.35;;;9.98;;
79616;SDS011;69097;52.132;5.422;2023-08-06T06:46:49;18.10;;;9.75;;
79616;SDS011;69097;52.132;5.422;2023-08-06T06:49:18;18.45;;;9.70;;
79616;SDS011;69097;52.132;5.422;2023-08-06T06:51:45;19.58;;;9.30;;
79616;SDS011;69097;52.132;5.422;2023-08-06T06:54:14;16.20;;;9.48;;
79616;SDS011;69097;52.132;5.422;2023-08-06T06:56:41;15.95;;;9.52;;
79616;SDS011;69097;52.132;5.422;2023-08-06T06:59:08;17.63;;;9.60;;
79616;SDS011;69097;52.132;5.422;2023-08-06T07:01:34;17.08;;;9.50;;
79616;SDS011;69097;52.132;5.422;2023-08-06T07:04:01;17.48;;;8.73;;
79616;SDS011;69097;52.132;5.422;2023-08-06T07:06:31;14.57;;;8.98;;
79616;SDS011;69097;52.132;5.422;2023-08-06T07:08:57;18.02;;;8.50;;
79616;SDS011;69097;52.132;5.422;2023-08-06T07:11:24;18.00;;;9.20;;
79616;SDS011;69097;52.132;5.422;2023-08-06T07:13:55;16.38;;;8.85;;
79616;SDS011;69097;52.132;5.422;2023-08-06T07:16:23;15.63;;;8.80;;
79616;SDS011;69097;52.132;5.422;2023-08-06T07:18:53;15.77;;;9.05;;
79616;SDS011;69097;52.132;5.422;2023-08-06T07:21:20;16.27;;;8.80;;
79616;SDS011;69097;52.132;5.422;2023-08-06T07:23:47;16.30;;;9.43;;
79616;SDS011;69097;52.132;5.422;2023-08-06T07:26:16;20.13;;;9.93;;
79616;SDS011;69097;52.132;5.422;2023-08-06T07:28:43;17.83;;;9.88;;
79616;SDS011;69097;52.132;5.422;2023-08-06T07:31:10;16.10;;;9.18;;
79616;SDS011;69097;52.132;5.422;2023-08-06T07:33:37;16.77;;;8.98;;
79616;SDS011;69097;52.132;5.422;2023-08-06T07:36:08;18.20;;;9.77;;
79616;SDS011;69097;52.132;5.422;2023-08-06T07:38:38;16.70;;;8.82;;
79616;SDS011;69097;52.132;5.422;2023-08-06T07:41:05;16.08;;;9.05;;
79616;SDS011;69097;52.132;5.422;2023-08-06T07:43:31;16.95;;;9.35;;
79616;SDS011;69097;52.132;5.422;2023-08-06T07:45:58;16.08;;;8.52;;
79616;SDS011;69097;52.132;5.422;2023-08-06T07:48:29;17.85;;;9.57;;
79616;SDS011;69097;52.132;5.422;2023-08-06T07:50:56;16.67;;;9.25;;
79616;SDS011;69097;52.132;5.422;2023-08-06T07:53:24;17.20;;;9.05;;
79616;SDS011;69097;52.132;5.422;2023-08-06T07:55:55;17.58;;;8.57;;
79616;SDS011;69097;52.132;5.422;2023-08-06T07:58:23;17.60;;;9.18;;
79616;SDS011;69097;52.132;5.422;2023-08-06T08:00:51;14.43;;;8.27;;
79616;SDS011;69097;52.132;5.422;2023-08-06T08:03:18;17.85;;;9.32;;
79616;SDS011;69097;52.132;5.422;2023-08-06T08:05:46;17.92;;;9.80;;
79616;SDS011;69097;52.132;5.422;2023-08-06T08:08:12;17.05;;;8.23;;
79616;SDS011;69097;52.132;5.422;2023-08-06T08:10:39;16.55;;;8.77;;
79616;SDS011;69097;52.132;5.422;2023-08-06T08:13:05;16.58;;;9.32;;
79616;SDS011;69097;52.132;5.422;2023-08-06T08:15:32;12.25;;;6.13;;
79616;SDS011;69097;52.132;5.422;2023-08-06T08:17:59;8.93;;;4.95;;
79616;SDS011;69097;52.132;5.422;2023-08-06T08:20:26;7.30;;;3.80;;
79616;SDS011;69097;52.132;5.422;2023-08-06T08:22:58;7.00;;;3.55;;
79616;SDS011;69097;52.132;5.422;2023-08-06T08:25:26;7.00;;;3.58;;
79616;SDS011;69097;52.132;5.422;2023-08-06T08:27:56;6.80;;;2.72;;
79616;SDS011;69097;52.132;5.422;2023-08-06T08:32:51;7.68;;;2.22;;
79616;SDS011;69097;52.132;5.422;2023-08-06T08:35:18;7.55;;;2.75;;
79616;SDS011;69097;52.132;5.422;2023-08-06T08:37:44;8.07;;;2.58;;
79616;SDS011;69097;52.132;5.422;2023-08-06T08:40:11;5.38;;;2.00;;
79616;SDS011;69097;52.132;5.422;2023-08-06T08:42:38;5.05;;;1.88;;
79616;SDS011;69097;52.132;5.422;2023-08-06T08:45:05;4.00;;;1.70;;
79616;SDS011;69097;52.132;5.422;2023-08-06T08:47:41;4.72;;;1.33;;
79616;SDS011;69097;52.132;5.422;2023-08-06T08:50:13;4.50;;;1.23;;
79616;SDS011;69097;52.132;5.422;2023-08-06T08:52:40;4.15;;;1.40;;
79616;SDS011;69097;52.132;5.422;2023-08-06T08:55:08;3.75;;;1.50;;
79616;SDS011;69097;52.132;5.422;2023-08-06T08:57:35;4.65;;;1.30;;
79616;SDS011;69097;52.132;5.422;2023-08-06T09:00:02;4.13;;;1.38;;
79616;SDS011;69097;52.132;5.422;2023-08-06T09:02:29;3.60;;;1.30;;
79616;SDS011;69097;52.132;5.422;2023-08-06T09:04:58;4.28;;;1.23;;
79616;SDS011;69097;52.132;5.422;2023-08-06T09:07:29;3.50;;;1.20;;
79616;SDS011;69097;52.132;5.422;2023-08-06T09:10:02;4.70;;;1.38;;
79616;SDS011;69097;52.132;5.422;2023-08-06T09:12:30;7.97;;;1.45;;
79616;SDS011;69097;52.132;5.422;2023-08-06T09:14:57;5.25;;;1.65;;
79616;SDS011;69097;52.132;5.422;2023-08-06T09:17:24;4.15;;;1.38;;
79616;SDS011;69097;52.132;5.422;2023-08-06T09:19:51;4.03;;;1.50;;
79616;SDS011;69097;52.132;5.422;2023-08-06T09:22:17;5.82;;;1.50;;
79616;SDS011;69097;52.132;5.422;2023-08-06T09:24:44;3.78;;;1.52;;
79616;SDS011;69097;52.132;5.422;2023-08-06T09:27:11;4.68;;;1.80;;
79616;SDS011;69097;52.132;5.422;2023-08-06T09:29:46;5.13;;;1.35;;
79616;SDS011;69097;52.132;5.422;2023-08-06T09:32:13;4.68;;;1.55;;
79616;SDS011;69097;52.132;5.422;2023-08-06T09:34:41;4.13;;;1.70;;
79616;SDS011;69097;52.132;5.422;2023-08-06T09:37:09;4.13;;;1.83;;
79616;SDS011;69097;52.132;5.422;2023-08-06T09:39:38;5.45;;;1.85;;
79616;SDS011;69097;52.132;5.422;2023-08-06T09:42:07;6.28;;;1.83;;
79616;SDS011;69097;52.132;5.422;2023-08-06T09:44:33;5.10;;;1.95;;
79616;SDS011;69097;52.132;5.422;2023-08-06T09:47:02;4.93;;;1.55;;
79616;SDS011;69097;52.132;5.422;2023-08-06T09:52:00;6.47;;;2.53;;
79616;SDS011;69097;52.132;5.422;2023-08-06T09:54:26;5.15;;;2.17;;
79616;SDS011;69097;52.132;5.422;2023-08-06T09:56:54;5.65;;;2.60;;
79616;SDS011;69097;52.132;5.422;2023-08-06T09:59:22;5.03;;;1.95;;
79616;SDS011;69097;52.132;5.422;2023-08-06T10:01:50;6.57;;;2.03;;
79616;SDS011;69097;52.132;5.422;2023-08-06T10:04:19;5.82;;;2.40;;
79616;SDS011;69097;52.132;5.422;2023-08-06T10:06:51;6.40;;;2.88;;
79616;SDS011;69097;52.132;5.422;2023-08-06T10:09:19;5.75;;;2.60;;
79616;SDS011;69097;52.132;5.422;2023-08-06T10:11:50;6.63;;;2.92;;
79616;SDS011;69097;52.132;5.422;2023-08-06T10:14:26;6.35;;;3.03;;
79616;SDS011;69097;52.132;5.422;2023-08-06T10:16:57;6.30;;;2.80;;
79616;SDS011;69097;52.132;5.422;2023-08-06T10:19:24;8.48;;;2.90;;
79616;SDS011;69097;52.132;5.422;2023-08-06T10:22:08;7.22;;;2.83;;
79616;SDS011;69097;52.132;5.422;2023-08-06T10:27:31;7.68;;;3.22;;
79616;SDS011;69097;52.132;5.422;2023-08-06T10:32:49;8.60;;;2.75;;
79616;SDS011;69097;52.132;5.422;2023-08-06T10:38:09;7.75;;;3.00;;
79616;SDS011;69097;52.132;5.422;2023-08-06T10:40:37;8.70;;;2.95;;
79616;SDS011;69097;52.132;5.422;2023-08-06T10:43:06;6.63;;;2.83;;
79616;SDS011;69097;52.132;5.422;2023-08-06T10:45:51;7.07;;;2.47;;
79616;SDS011;69097;52.132;5.422;2023-08-06T10:48:30;7.55;;;2.80;;
79616;SDS011;69097;52.132;5.422;2023-08-06T10:50:59;6.95;;;2.45;;
79616;SDS011;69097;52.132;5.422;2023-08-06T10:53:27;7.18;;;2.63;;
79616;SDS011;69097;52.132;5.422;2023-08-06T10:55:58;7.82;;;2.70;;
79616;SDS011;69097;52.132;5.422;2023-08-06T10:58:25;8.20;;;2.67;;
79616;SDS011;69097;52.132;5.422;2023-08-06T11:00:51;5.90;;;2.50;;
79616;SDS011;69097;52.132;5.422;2023-08-06T11:03:18;7.28;;;2.47;;
79616;SDS011;69097;52.132;5.422;2023-08-06T11:05:50;6.13;;;2.38;;
79616;SDS011;69097;52.132;5.422;2023-08-06T11:08:27;7.50;;;2.08;;
79616;SDS011;69097;52.132;5.422;2023-08-06T11:10:54;8.00;;;2.15;;
79616;SDS011;69097;52.132;5.422;2023-08-06T11:13:28;5.55;;;2.15;;
79616;SDS011;69097;52.132;5.422;2023-08-06T11:15:55;5.70;;;1.98;;
79616;SDS011;69097;52.132;5.422;2023-08-06T11:18:22;7.82;;;1.90;;
79616;SDS011;69097;52.132;5.422;2023-08-06T11:20:49;6.70;;;1.83;;
79616;SDS011;69097;52.132;5.422;2023-08-06T11:23:15;7.43;;;2.03;;
79616;SDS011;69097;52.132;5.422;2023-08-06T11:25:45;6.07;;;2.20;;
79616;SDS011;69097;52.132;5.422;2023-08-06T11:28:12;6.80;;;1.80;;
79616;SDS011;69097;52.132;5.422;2023-08-06T11:30:40;6.65;;;1.75;;
79616;SDS011;69097;52.132;5.422;2023-08-06T11:33:06;6.15;;;1.40;;
79616;SDS011;69097;52.132;5.422;2023-08-06T11:35:35;6.28;;;1.60;;
79616;SDS011;69097;52.132;5.422;2023-08-06T11:38:03;6.18;;;1.15;;
79616;SDS011;69097;52.132;5.422;2023-08-06T11:40:29;6.68;;;1.40;;
79616;SDS011;69097;52.132;5.422;2023-08-06T11:42:57;5.60;;;1.30;;
79616;SDS011;69097;52.132;5.422;2023-08-06T11:45:24;5.88;;;1.63;;
79616;SDS011;69097;52.132;5.422;2023-08-06T11:47:51;6.18;;;1.83;;
79616;SDS011;69097;52.132;5.422;2023-08-06T11:50:23;6.25;;;2.13;;
79616;SDS011;69097;52.132;5.422;2023-08-06T11:52:52;5.65;;;1.75;;
79616;SDS011;69097;52.132;5.422;2023-08-06T11:55:29;6.85;;;1.95;;
79616;SDS011;69097;52.132;5.422;2023-08-06T11:57:56;6.25;;;1.65;;
79616;SDS011;69097;52.132;5.422;2023-08-06T12:02:51;4.55;;;1.42;;
79616;SDS011;69097;52.132;5.422;2023-08-06T12:05:19;4.97;;;1.58;;
79616;SDS011;69097;52.132;5.422;2023-08-06T12:07:54;4.70;;;1.60;;
79616;SDS011;69097;52.132;5.422;2023-08-06T12:10:25;4.95;;;1.45;;
79616;SDS011;69097;52.132;5.422;2023-08-06T12:12:53;5.32;;;1.48;;
79616;SDS011;69097;52.132;5.422;2023-08-06T12:15:20;4.80;;;1.08;;
79616;SDS011;69097;52.132;5.422;2023-08-06T12:17:46;5.95;;;1.23;;
79616;SDS011;69097;52.132;5.422;2023-08-06T12:20:13;6.00;;;1.33;;
79616;SDS011;69097;52.132;5.422;2023-08-06T12:22:40;4.80;;;1.25;;
79616;SDS011;69097;52.132;5.422;2023-08-06T12:25:10;6.90;;;1.52;;
79616;SDS011;69097;52.132;5.422;2023-08-06T12:27:38;4.68;;;1.42;;
79616;SDS011;69097;52.132;5.422;2023-08-06T12:30:09;4.38;;;1.17;;
79616;SDS011;69097;52.132;5.422;2023-08-06T12:32:36;3.65;;;0.93;;
79616;SDS011;69097;52.132;5.422;2023-08-06T12:35:04;4.68;;;1.13;;
79616;SDS011;69097;52.132;5.422;2023-08-06T12:39:57;5.32;;;1.00;;
79616;SDS011;69097;52.132;5.422;2023-08-06T12:42:24;4.78;;;1.13;;
79616;SDS011;69097;52.132;5.422;2023-08-06T12:44:51;6.78;;;1.00;;
79616;SDS011;69097;52.132;5.422;2023-08-06T12:47:18;5.05;;;0.93;;
79616;SDS011;69097;52.132;5.422;2023-08-06T12:49:45;4.63;;;0.93;;
79616;SDS011;69097;52.132;5.422;2023-08-06T12:52:11;7.53;;;1.13;;
79616;SDS011;69097;52.132;5.422;2023-08-06T12:54:41;4.20;;;0.95;;
79616;SDS011;69097;52.132;5.422;2023-08-06T12:57:08;3.67;;;1.02;;
79616;SDS011;69097;52.132;5.422;2023-08-06T12:59:34;4.22;;;1.20;;
79616;SDS011;69097;52.132;5.422;2023-08-06T13:02:03;3.85;;;1.20;;
79616;SDS011;69097;52.132;5.422;2023-08-06T13:04:30;4.72;;;1.10;;
79616;SDS011;69097;52.132;5.422;2023-08-06T13:09:24;3.55;;;1.25;;
79616;SDS011;69097;52.132;5.422;2023-08-06T13:11:52;4.13;;;1.20;;
79616;SDS011;69097;52.132;5.422;2023-08-06T13:14:20;4.30;;;1.05;;
79616;SDS011;69097;52.132;5.422;2023-08-06T13:16:46;4.97;;;1.65;;
79616;SDS011;69097;52.132;5.422;2023-08-06T13:19:13;5.78;;;1.45;;
79616;SDS011;69097;52.132;5.422;2023-08-06T13:24:06;5.20;;;1.50;;
79616;SDS011;69097;52.132;5.422;2023-08-06T13:26:34;4.28;;;1.33;;
79616;SDS011;69097;52.132;5.422;2023-08-06T13:29:01;5.50;;;1.70;;
79616;SDS011;69097;52.132;5.422;2023-08-06T13:31:28;4.82;;;1.60;;
79616;SDS011;69097;52.132;5.422;2023-08-06T13:33:56;4.45;;;1.30;;
79616;SDS011;69097;52.132;5.422;2023-08-06T13:36:27;6.55;;;1.40;;
79616;SDS011;69097;52.132;5.422;2023-08-06T13:38:55;7.13;;;1.38;;
79616;SDS011;69097;52.132;5.422;2023-08-06T13:41:22;6.10;;;1.65;;
79616;SDS011;69097;52.132;5.422;2023-08-06T13:43:48;3.50;;;1.13;;
79616;SDS011;69097;52.132;5.422;2023-08-06T13:46:17;4.38;;;1.35;;
79616;SDS011;69097;52.132;5.422;2023-08-06T13:48:46;5.35;;;1.40;;
79616;SDS011;69097;52.132;5.422;2023-08-06T13:51:17;5.32;;;1.40;;
79616;SDS011;69097;52.132;5.422;2023-08-06T13:53:43;4.30;;;1.67;;
79616;SDS011;69097;52.132;5.422;2023-08-06T13:56:10;6.10;;;1.85;;
79616;SDS011;69097;52.132;5.422;2023-08-06T14:01:04;5.80;;;1.40;;
79616;SDS011;69097;52.132;5.422;2023-08-06T14:03:33;5.57;;;1.30;;
79616;SDS011;69097;52.132;5.422;2023-08-06T14:06:00;5.80;;;1.33;;
79616;SDS011;69097;52.132;5.422;2023-08-06T14:08:27;5.40;;;1.33;;
79616;SDS011;69097;52.132;5.422;2023-08-06T14:10:54;5.28;;;1.77;;
79616;SDS011;69097;52.132;5.422;2023-08-06T14:13:21;3.75;;;1.15;;
79616;SDS011;69097;52.132;5.422;2023-08-06T14:15:48;4.20;;;1.17;;
79616;SDS011;69097;52.132;5.422;2023-08-06T14:18:15;5.10;;;1.67;;
79616;SDS011;69097;52.132;5.422;2023-08-06T14:20:43;4.10;;;1.13;;
79616;SDS011;69097;52.132;5.422;2023-08-06T14:23:10;6.38;;;1.73;;
79616;SDS011;69097;52.132;5.422;2023-08-06T14:25:38;8.40;;;1.90;;
79616;SDS011;69097;52.132;5.422;2023-08-06T14:28:05;5.97;;;1.60;;
79616;SDS011;69097;52.132;5.422;2023-08-06T14:30:33;6.80;;;2.00;;
79616;SDS011;69097;52.132;5.422;2023-08-06T14:33:00;7.78;;;2.00;;
79616;SDS011;69097;52.132;5.422;2023-08-06T14:35:46;4.65;;;1.60;;
79616;SDS011;69097;52.132;5.422;2023-08-06T14:38:13;7.45;;;1.80;;
79616;SDS011;69097;52.132;5.422;2023-08-06T14:40:39;7.97;;;1.63;;
79616;SDS011;69097;52.132;5.422;2023-08-06T14:43:06;4.38;;;1.48;;
79616;SDS011;69097;52.132;5.422;2023-08-06T14:45:33;6.82;;;1.05;;
79616;SDS011;69097;52.132;5.422;2023-08-06T14:47:59;5.03;;;1.83;;
79616;SDS011;69097;52.132;5.422;2023-08-06T14:50:26;5.50;;;1.40;;
79616;SDS011;69097;52.132;5.422;2023-08-06T14:52:52;4.63;;;1.48;;
79616;SDS011;69097;52.132;5.422;2023-08-06T14:55:23;5.85;;;1.65;;
79616;SDS011;69097;52.132;5.422;2023-08-06T14:57:50;4.60;;;1.48;;
79616;SDS011;69097;52.132;5.422;2023-08-06T15:00:18;4.93;;;1.38;;
79616;SDS011;69097;52.132;5.422;2023-08-06T15:02:45;6.00;;;1.80;;
79616;SDS011;69097;52.132;5.422;2023-08-06T15:05:12;5.82;;;1.80;;
79616;SDS011;69097;52.132;5.422;2023-08-06T15:07:39;5.63;;;1.45;;
79616;SDS011;69097;52.132;5.422;2023-08-06T15:10:06;3.90;;;1.23;;
79616;SDS011;69097;52.132;5.422;2023-08-06T15:15:17;5.50;;;1.23;;
79616;SDS011;69097;52.132;5.422;2023-08-06T15:17:44;4.75;;;1.13;;
79616;SDS011;69097;52.132;5.422;2023-08-06T15:20:11;5.20;;;1.67;;
79616;SDS011;69097;52.132;5.422;2023-08-06T15:22:38;4.15;;;0.70;;
79616;SDS011;69097;52.132;5.422;2023-08-06T15:25:04;5.63;;;0.95;;
79616;SDS011;69097;52.132;5.422;2023-08-06T15:27:31;5.60;;;1.10;;
79616;SDS011;69097;52.132;5.422;2023-08-06T15:29:58;8.55;;;1.13;;